Atikokan, Canada
Current Conditions -  °F | °C
As of 1:53 AM on Friday 24 Oct 2014 (Local Time) from KCDD Reporting Station
Clear Clear  
Wind Chill: 46°   Ceiling: Unl
Heat Index: 46°   Visibility: 10mi
Dew Point: 45°   Wind: 3mph
Humidity: 93%   Direction: 170°S
Pressure: 29.85"   Gusts: NA
Location:  48.76°N, 91.59°W
Report Text: KCDD 240653Z AUTO 17003KT 10SM CLR 08/07 A2985 RMK AO2
Loading
Personal Weather Stations






























Interactive Weather Map
Tropical Storm Tracking
New forecast layout! Learn more

10-Day Weather Forecast

Advertisements
Track Severe Weather on mobile